sensor_id;sensor_type;location;lat;lon;timestamp;P1;durP1;ratioP1;P2;durP2;ratioP2
3995;SDS011;2012;49.794;9.722;2023-04-06T00:00:53;11.30;;;7.63;;
3995;SDS011;2012;49.794;9.722;2023-04-06T00:03:20;8.90;;;6.93;;
3995;SDS011;2012;49.794;9.722;2023-04-06T00:05:47;12.13;;;7.23;;
3995;SDS011;2012;49.794;9.722;2023-04-06T00:08:14;11.60;;;7.00;;
3995;SDS011;2012;49.794;9.722;2023-04-06T00:10:41;12.53;;;6.27;;
3995;SDS011;2012;49.794;9.722;2023-04-06T00:13:08;11.73;;;7.90;;
3995;SDS011;2012;49.794;9.722;2023-04-06T00:15:35;11.93;;;7.20;;
3995;SDS011;2012;49.794;9.722;2023-04-06T00:18:02;13.23;;;6.90;;
3995;SDS011;2012;49.794;9.722;2023-04-06T00:20:30;9.90;;;6.73;;
3995;SDS011;2012;49.794;9.722;2023-04-06T00:22:57;14.20;;;7.73;;
3995;SDS011;2012;49.794;9.722;2023-04-06T00:25:24;10.50;;;7.00;;
3995;SDS011;2012;49.794;9.722;2023-04-06T00:27:51;10.60;;;7.07;;
3995;SDS011;2012;49.794;9.722;2023-04-06T00:30:18;11.50;;;7.17;;
3995;SDS011;2012;49.794;9.722;2023-04-06T00:32:45;9.93;;;7.50;;
3995;SDS011;2012;49.794;9.722;2023-04-06T00:35:12;9.10;;;6.70;;
3995;SDS011;2012;49.794;9.722;2023-04-06T00:37:38;13.57;;;7.33;;
3995;SDS011;2012;49.794;9.722;2023-04-06T00:40:06;10.40;;;7.40;;
3995;SDS011;2012;49.794;9.722;2023-04-06T00:42:33;11.33;;;7.30;;
3995;SDS011;2012;49.794;9.722;2023-04-06T00:45:00;11.13;;;8.00;;
3995;SDS011;2012;49.794;9.722;2023-04-06T00:47:28;15.40;;;7.30;;
3995;SDS011;2012;49.794;9.722;2023-04-06T00:49:56;8.83;;;7.13;;
3995;SDS011;2012;49.794;9.722;2023-04-06T00:52:23;9.77;;;7.47;;
3995;SDS011;2012;49.794;9.722;2023-04-06T00:54:50;9.77;;;7.03;;
3995;SDS011;2012;49.794;9.722;2023-04-06T00:57:19;11.50;;;6.83;;
3995;SDS011;2012;49.794;9.722;2023-04-06T00:59:52;9.87;;;6.60;;
3995;SDS011;2012;49.794;9.722;2023-04-06T01:02:19;10.30;;;6.67;;
3995;SDS011;2012;49.794;9.722;2023-04-06T01:04:49;10.33;;;8.03;;
3995;SDS011;2012;49.794;9.722;2023-04-06T01:07:36;10.20;;;6.53;;
3995;SDS011;2012;49.794;9.722;2023-04-06T01:10:23;11.90;;;7.67;;
3995;SDS011;2012;49.794;9.722;2023-04-06T01:12:56;9.43;;;7.17;;
3995;SDS011;2012;49.794;9.722;2023-04-06T01:15:41;7.23;;;6.20;;
3995;SDS011;2012;49.794;9.722;2023-04-06T01:18:12;8.60;;;7.40;;
3995;SDS011;2012;49.794;9.722;2023-04-06T01:20:46;9.10;;;6.40;;
3995;SDS011;2012;49.794;9.722;2023-04-06T01:23:14;10.47;;;7.13;;
3995;SDS011;2012;49.794;9.722;2023-04-06T01:25:45;9.23;;;7.23;;
3995;SDS011;2012;49.794;9.722;2023-04-06T01:28:12;9.93;;;7.63;;
3995;SDS011;2012;49.794;9.722;2023-04-06T01:30:51;11.73;;;7.47;;
3995;SDS011;2012;49.794;9.722;2023-04-06T01:33:37;11.60;;;7.50;;
3995;SDS011;2012;49.794;9.722;2023-04-06T01:36:07;11.20;;;7.60;;
3995;SDS011;2012;49.794;9.722;2023-04-06T01:38:34;13.07;;;7.40;;
3995;SDS011;2012;49.794;9.722;2023-04-06T01:41:01;12.30;;;7.67;;
3995;SDS011;2012;49.794;9.722;2023-04-06T01:43:34;14.97;;;8.20;;
3995;SDS011;2012;49.794;9.722;2023-04-06T01:46:07;13.50;;;7.83;;
3995;SDS011;2012;49.794;9.722;2023-04-06T01:48:37;13.50;;;7.93;;
3995;SDS011;2012;49.794;9.722;2023-04-06T01:51:27;9.70;;;7.10;;
3995;SDS011;2012;49.794;9.722;2023-04-06T01:53:58;10.57;;;7.67;;
3995;SDS011;2012;49.794;9.722;2023-04-06T01:56:35;9.40;;;7.17;;
3995;SDS011;2012;49.794;9.722;2023-04-06T01:59:14;9.57;;;6.80;;
3995;SDS011;2012;49.794;9.722;2023-04-06T02:01:42;11.93;;;7.00;;
3995;SDS011;2012;49.794;9.722;2023-04-06T02:04:09;7.77;;;6.33;;
3995;SDS011;2012;49.794;9.722;2023-04-06T02:06:36;11.33;;;7.40;;
3995;SDS011;2012;49.794;9.722;2023-04-06T02:09:06;10.40;;;6.80;;
3995;SDS011;2012;49.794;9.722;2023-04-06T02:11:33;9.57;;;5.77;;
3995;SDS011;2012;49.794;9.722;2023-04-06T02:14:00;7.87;;;5.70;;
3995;SDS011;2012;49.794;9.722;2023-04-06T02:16:30;9.83;;;6.23;;
3995;SDS011;2012;49.794;9.722;2023-04-06T02:18:57;9.73;;;6.60;;
3995;SDS011;2012;49.794;9.722;2023-04-06T02:21:24;12.77;;;7.03;;
3995;SDS011;2012;49.794;9.722;2023-04-06T02:23:51;9.67;;;7.00;;
3995;SDS011;2012;49.794;9.722;2023-04-06T02:26:18;9.57;;;7.07;;
3995;SDS011;2012;49.794;9.722;2023-04-06T02:28:45;7.93;;;6.63;;
3995;SDS011;2012;49.794;9.722;2023-04-06T02:31:12;10.27;;;6.87;;
3995;SDS011;2012;49.794;9.722;2023-04-06T02:33:42;8.97;;;6.90;;
3995;SDS011;2012;49.794;9.722;2023-04-06T02:36:11;10.03;;;7.30;;
3995;SDS011;2012;49.794;9.722;2023-04-06T02:38:38;9.37;;;7.20;;
3995;SDS011;2012;49.794;9.722;2023-04-06T02:41:04;11.00;;;6.93;;
3995;SDS011;2012;49.794;9.722;2023-04-06T02:43:32;8.83;;;7.03;;
3995;SDS011;2012;49.794;9.722;2023-04-06T02:46:28;8.47;;;6.00;;
3995;SDS011;2012;49.794;9.722;2023-04-06T02:48:56;8.37;;;6.30;;
3995;SDS011;2012;49.794;9.722;2023-04-06T02:51:24;6.67;;;5.97;;
3995;SDS011;2012;49.794;9.722;2023-04-06T02:53:55;12.27;;;6.87;;
3995;SDS011;2012;49.794;9.722;2023-04-06T02:56:22;8.77;;;6.40;;
3995;SDS011;2012;49.794;9.722;2023-04-06T02:58:51;8.50;;;6.63;;
3995;SDS011;2012;49.794;9.722;2023-04-06T03:01:19;8.40;;;6.57;;
3995;SDS011;2012;49.794;9.722;2023-04-06T03:03:52;9.13;;;6.60;;
3995;SDS011;2012;49.794;9.722;2023-04-06T03:06:23;16.33;;;6.90;;
3995;SDS011;2012;49.794;9.722;2023-04-06T03:08:54;9.33;;;6.30;;
3995;SDS011;2012;49.794;9.722;2023-04-06T03:11:21;10.13;;;7.40;;
3995;SDS011;2012;49.794;9.722;2023-04-06T03:13:50;11.00;;;7.33;;
3995;SDS011;2012;49.794;9.722;2023-04-06T03:16:17;9.07;;;7.20;;
3995;SDS011;2012;49.794;9.722;2023-04-06T03:18:44;8.73;;;5.87;;
3995;SDS011;2012;49.794;9.722;2023-04-06T03:21:13;12.80;;;7.23;;
3995;SDS011;2012;49.794;9.722;2023-04-06T03:23:46;10.40;;;7.73;;
3995;SDS011;2012;49.794;9.722;2023-04-06T03:26:16;12.03;;;7.00;;
3995;SDS011;2012;49.794;9.722;2023-04-06T03:28:44;9.20;;;6.57;;
3995;SDS011;2012;49.794;9.722;2023-04-06T03:31:11;9.60;;;6.90;;
3995;SDS011;2012;49.794;9.722;2023-04-06T03:33:45;7.00;;;6.00;;
3995;SDS011;2012;49.794;9.722;2023-04-06T03:36:20;11.13;;;7.20;;
3995;SDS011;2012;49.794;9.722;2023-04-06T03:38:47;10.43;;;7.00;;
3995;SDS011;2012;49.794;9.722;2023-04-06T03:41:14;10.33;;;6.83;;
3995;SDS011;2012;49.794;9.722;2023-04-06T03:43:47;11.47;;;7.20;;
3995;SDS011;2012;49.794;9.722;2023-04-06T03:46:16;8.03;;;7.17;;
3995;SDS011;2012;49.794;9.722;2023-04-06T03:48:43;14.40;;;7.00;;
3995;SDS011;2012;49.794;9.722;2023-04-06T03:51:11;11.53;;;6.83;;
3995;SDS011;2012;49.794;9.722;2023-04-06T03:53:38;8.00;;;7.20;;
3995;SDS011;2012;49.794;9.722;2023-04-06T03:56:05;9.77;;;7.00;;
3995;SDS011;2012;49.794;9.722;2023-04-06T03:58:32;9.93;;;7.67;;
3995;SDS011;2012;49.794;9.722;2023-04-06T04:00:59;9.13;;;7.40;;
3995;SDS011;2012;49.794;9.722;2023-04-06T04:03:26;8.50;;;6.70;;
3995;SDS011;2012;49.794;9.722;2023-04-06T04:05:54;8.30;;;6.80;;
3995;SDS011;2012;49.794;9.722;2023-04-06T04:08:24;9.57;;;7.00;;
3995;SDS011;2012;49.794;9.722;2023-04-06T04:10:51;9.00;;;7.30;;
3995;SDS011;2012;49.794;9.722;2023-04-06T04:13:18;8.77;;;6.97;;
3995;SDS011;2012;49.794;9.722;2023-04-06T04:15:48;11.10;;;6.60;;
3995;SDS011;2012;49.794;9.722;2023-04-06T04:18:15;10.87;;;7.60;;
3995;SDS011;2012;49.794;9.722;2023-04-06T04:20:42;11.27;;;8.20;;
3995;SDS011;2012;49.794;9.722;2023-04-06T04:23:10;8.63;;;6.67;;
3995;SDS011;2012;49.794;9.722;2023-04-06T04:25:37;8.50;;;7.60;;
3995;SDS011;2012;49.794;9.722;2023-04-06T04:28:04;8.40;;;7.47;;
3995;SDS011;2012;49.794;9.722;2023-04-06T04:30:31;9.50;;;7.10;;
3995;SDS011;2012;49.794;9.722;2023-04-06T04:32:58;8.93;;;5.77;;
3995;SDS011;2012;49.794;9.722;2023-04-06T04:35:26;9.43;;;6.60;;
3995;SDS011;2012;49.794;9.722;2023-04-06T04:37:53;7.60;;;6.73;;
3995;SDS011;2012;49.794;9.722;2023-04-06T04:40:19;7.73;;;6.47;;
3995;SDS011;2012;49.794;9.722;2023-04-06T04:42:51;8.03;;;7.20;;
3995;SDS011;2012;49.794;9.722;2023-04-06T04:45:25;11.73;;;7.57;;
3995;SDS011;2012;49.794;9.722;2023-04-06T04:47:52;15.13;;;7.33;;
3995;SDS011;2012;49.794;9.722;2023-04-06T04:50:21;7.70;;;6.63;;
3995;SDS011;2012;49.794;9.722;2023-04-06T04:52:53;13.37;;;6.80;;
3995;SDS011;2012;49.794;9.722;2023-04-06T04:55:22;9.50;;;7.03;;
3995;SDS011;2012;49.794;9.722;2023-04-06T04:57:52;7.80;;;7.00;;
3995;SDS011;2012;49.794;9.722;2023-04-06T05:00:25;8.90;;;6.80;;
3995;SDS011;2012;49.794;9.722;2023-04-06T05:02:56;12.77;;;7.60;;
3995;SDS011;2012;49.794;9.722;2023-04-06T05:05:30;11.00;;;6.90;;
3995;SDS011;2012;49.794;9.722;2023-04-06T05:07:58;9.17;;;7.67;;
3995;SDS011;2012;49.794;9.722;2023-04-06T05:10:36;11.43;;;7.53;;
3995;SDS011;2012;49.794;9.722;2023-04-06T05:13:04;13.97;;;8.70;;
3995;SDS011;2012;49.794;9.722;2023-04-06T05:15:30;10.83;;;6.87;;
3995;SDS011;2012;49.794;9.722;2023-04-06T05:18:05;11.50;;;7.87;;
3995;SDS011;2012;49.794;9.722;2023-04-06T05:20:34;10.67;;;7.23;;
3995;SDS011;2012;49.794;9.722;2023-04-06T05:23:02;9.20;;;7.13;;
3995;SDS011;2012;49.794;9.722;2023-04-06T05:25:29;11.23;;;8.43;;
3995;SDS011;2012;49.794;9.722;2023-04-06T05:28:02;21.90;;;9.97;;
3995;SDS011;2012;49.794;9.722;2023-04-06T05:30:32;16.90;;;10.30;;
3995;SDS011;2012;49.794;9.722;2023-04-06T05:33:01;12.20;;;8.30;;
3995;SDS011;2012;49.794;9.722;2023-04-06T05:35:39;9.23;;;7.63;;
3995;SDS011;2012;49.794;9.722;2023-04-06T05:38:10;10.67;;;7.63;;
3995;SDS011;2012;49.794;9.722;2023-04-06T05:40:37;11.73;;;7.63;;
3995;SDS011;2012;49.794;9.722;2023-04-06T05:43:10;11.87;;;7.60;;
3995;SDS011;2012;49.794;9.722;2023-04-06T05:45:40;12.40;;;7.63;;
3995;SDS011;2012;49.794;9.722;2023-04-06T05:48:07;25.60;;;13.30;;
3995;SDS011;2012;49.794;9.722;2023-04-06T05:50:34;22.50;;;10.33;;
3995;SDS011;2012;49.794;9.722;2023-04-06T05:53:01;12.30;;;8.17;;
3995;SDS011;2012;49.794;9.722;2023-04-06T05:55:35;11.80;;;7.60;;
3995;SDS011;2012;49.794;9.722;2023-04-06T05:58:10;10.50;;;7.90;;
3995;SDS011;2012;49.794;9.722;2023-04-06T06:00:36;13.07;;;8.00;;
3995;SDS011;2012;49.794;9.722;2023-04-06T06:03:06;13.30;;;7.50;;
3995;SDS011;2012;49.794;9.722;2023-04-06T06:05:36;11.70;;;7.40;;
3995;SDS011;2012;49.794;9.722;2023-04-06T06:08:08;16.23;;;8.50;;
3995;SDS011;2012;49.794;9.722;2023-04-06T06:10:37;13.90;;;7.70;;
3995;SDS011;2012;49.794;9.722;2023-04-06T06:13:07;16.80;;;10.20;;
3995;SDS011;2012;49.794;9.722;2023-04-06T06:15:34;31.17;;;16.10;;
3995;SDS011;2012;49.794;9.722;2023-04-06T06:18:01;36.83;;;16.10;;
3995;SDS011;2012;49.794;9.722;2023-04-06T06:20:29;31.00;;;15.00;;
3995;SDS011;2012;49.794;9.722;2023-04-06T06:22:59;40.40;;;19.33;;
3995;SDS011;2012;49.794;9.722;2023-04-06T06:25:26;32.10;;;16.37;;
3995;SDS011;2012;49.794;9.722;2023-04-06T06:27:54;27.07;;;14.20;;
3995;SDS011;2012;49.794;9.722;2023-04-06T06:30:21;23.10;;;12.90;;
3995;SDS011;2012;49.794;9.722;2023-04-06T06:32:50;24.00;;;12.00;;
3995;SDS011;2012;49.794;9.722;2023-04-06T06:35:17;15.97;;;11.00;;
3995;SDS011;2012;49.794;9.722;2023-04-06T06:37:46;15.97;;;11.83;;
3995;SDS011;2012;49.794;9.722;2023-04-06T06:40:16;23.10;;;13.73;;
3995;SDS011;2012;49.794;9.722;2023-04-06T06:42:46;22.10;;;12.80;;
3995;SDS011;2012;49.794;9.722;2023-04-06T06:45:23;26.07;;;13.33;;
3995;SDS011;2012;49.794;9.722;2023-04-06T06:47:51;25.77;;;14.13;;
3995;SDS011;2012;49.794;9.722;2023-04-06T06:50:21;22.47;;;12.87;;
3995;SDS011;2012;49.794;9.722;2023-04-06T06:52:47;20.40;;;12.17;;
3995;SDS011;2012;49.794;9.722;2023-04-06T06:55:14;24.30;;;12.07;;
3995;SDS011;2012;49.794;9.722;2023-04-06T06:57:41;25.93;;;12.10;;
3995;SDS011;2012;49.794;9.722;2023-04-06T07:00:09;18.00;;;11.33;;
3995;SDS011;2012;49.794;9.722;2023-04-06T07:02:39;34.63;;;13.63;;
3995;SDS011;2012;49.794;9.722;2023-04-06T07:05:06;21.10;;;12.93;;
3995;SDS011;2012;49.794;9.722;2023-04-06T07:07:52;20.17;;;11.63;;
3995;SDS011;2012;49.794;9.722;2023-04-06T07:10:18;20.30;;;11.73;;
3995;SDS011;2012;49.794;9.722;2023-04-06T07:12:46;16.50;;;11.30;;
3995;SDS011;2012;49.794;9.722;2023-04-06T07:15:12;18.07;;;10.40;;
3995;SDS011;2012;49.794;9.722;2023-04-06T07:17:39;21.97;;;11.27;;
3995;SDS011;2012;49.794;9.722;2023-04-06T07:20:11;16.10;;;11.30;;
3995;SDS011;2012;49.794;9.722;2023-04-06T07:22:39;15.67;;;11.03;;
3995;SDS011;2012;49.794;9.722;2023-04-06T07:25:06;19.67;;;12.00;;
3995;SDS011;2012;49.794;9.722;2023-04-06T07:27:33;18.73;;;12.43;;
3995;SDS011;2012;49.794;9.722;2023-04-06T07:30:01;19.10;;;12.13;;
3995;SDS011;2012;49.794;9.722;2023-04-06T07:32:28;21.50;;;12.57;;
3995;SDS011;2012;49.794;9.722;2023-04-06T07:34:55;16.50;;;11.30;;
3995;SDS011;2012;49.794;9.722;2023-04-06T07:37:22;19.67;;;11.33;;
3995;SDS011;2012;49.794;9.722;2023-04-06T07:39:49;14.80;;;9.80;;
3995;SDS011;2012;49.794;9.722;2023-04-06T07:42:17;15.50;;;11.50;;
3995;SDS011;2012;49.794;9.722;2023-04-06T07:44:44;14.13;;;9.37;;
3995;SDS011;2012;49.794;9.722;2023-04-06T07:47:11;16.50;;;10.37;;
3995;SDS011;2012;49.794;9.722;2023-04-06T07:49:38;17.80;;;11.03;;
3995;SDS011;2012;49.794;9.722;2023-04-06T07:52:05;13.47;;;10.00;;
3995;SDS011;2012;49.794;9.722;2023-04-06T07:54:32;13.77;;;10.50;;
3995;SDS011;2012;49.794;9.722;2023-04-06T07:56:59;15.80;;;11.20;;
3995;SDS011;2012;49.794;9.722;2023-04-06T07:59:26;15.20;;;10.70;;
3995;SDS011;2012;49.794;9.722;2023-04-06T08:01:52;13.93;;;9.23;;
3995;SDS011;2012;49.794;9.722;2023-04-06T08:04:19;14.80;;;9.50;;
3995;SDS011;2012;49.794;9.722;2023-04-06T08:06:46;16.13;;;9.30;;
3995;SDS011;2012;49.794;9.722;2023-04-06T08:09:13;16.60;;;9.93;;
3995;SDS011;2012;49.794;9.722;2023-04-06T08:11:40;15.87;;;8.97;;
3995;SDS011;2012;49.794;9.722;2023-04-06T08:14:06;19.60;;;9.47;;
3995;SDS011;2012;49.794;9.722;2023-04-06T08:16:34;17.93;;;9.30;;
3995;SDS011;2012;49.794;9.722;2023-04-06T08:19:01;10.90;;;8.97;;
3995;SDS011;2012;49.794;9.722;2023-04-06T08:21:27;15.40;;;9.87;;
3995;SDS011;2012;49.794;9.722;2023-04-06T08:23:54;21.90;;;9.60;;
3995;SDS011;2012;49.794;9.722;2023-04-06T08:26:21;21.33;;;9.80;;
3995;SDS011;2012;49.794;9.722;2023-04-06T08:28:48;16.07;;;8.20;;
3995;SDS011;2012;49.794;9.722;2023-04-06T08:31:14;23.17;;;11.53;;
3995;SDS011;2012;49.794;9.722;2023-04-06T08:33:41;15.93;;;10.50;;
3995;SDS011;2012;49.794;9.722;2023-04-06T08:36:12;16.57;;;10.60;;
3995;SDS011;2012;49.794;9.722;2023-04-06T08:38:40;14.90;;;9.77;;
3995;SDS011;2012;49.794;9.722;2023-04-06T08:41:10;18.73;;;10.30;;
3995;SDS011;2012;49.794;9.722;2023-04-06T08:43:42;15.73;;;9.20;;
3995;SDS011;2012;49.794;9.722;2023-04-06T08:46:09;11.43;;;8.97;;
3995;SDS011;2012;49.794;9.722;2023-04-06T08:48:40;13.87;;;9.53;;
3995;SDS011;2012;49.794;9.722;2023-04-06T08:51:09;19.00;;;9.57;;
3995;SDS011;2012;49.794;9.722;2023-04-06T08:53:37;14.47;;;9.73;;
3995;SDS011;2012;49.794;9.722;2023-04-06T08:56:04;17.77;;;9.00;;
3995;SDS011;2012;49.794;9.722;2023-04-06T08:58:33;15.97;;;9.50;;
3995;SDS011;2012;49.794;9.722;2023-04-06T09:01:08;14.07;;;9.57;;
3995;SDS011;2012;49.794;9.722;2023-04-06T09:03:38;12.80;;;8.87;;
3995;SDS011;2012;49.794;9.722;2023-04-06T09:06:06;16.97;;;9.33;;
3995;SDS011;2012;49.794;9.722;2023-04-06T09:08:34;19.87;;;10.80;;
3995;SDS011;2012;49.794;9.722;2023-04-06T09:11:02;19.27;;;9.40;;
3995;SDS011;2012;49.794;9.722;2023-04-06T09:13:29;21.00;;;9.50;;
3995;SDS011;2012;49.794;9.722;2023-04-06T09:16:03;12.40;;;8.27;;
3995;SDS011;2012;49.794;9.722;2023-04-06T09:18:31;33.33;;;8.80;;
3995;SDS011;2012;49.794;9.722;2023-04-06T09:21:03;16.90;;;9.60;;
3995;SDS011;2012;49.794;9.722;2023-04-06T09:23:31;13.27;;;9.20;;
3995;SDS011;2012;49.794;9.722;2023-04-06T09:31:22;16.00;;;8.70;;
3995;SDS011;2012;49.794;9.722;2023-04-06T09:33:51;13.23;;;8.83;;
3995;SDS011;2012;49.794;9.722;2023-04-06T09:36:18;9.50;;;8.27;;
3995;SDS011;2012;49.794;9.722;2023-04-06T09:38:55;11.40;;;8.37;;
3995;SDS011;2012;49.794;9.722;2023-04-06T09:41:34;10.80;;;8.93;;
3995;SDS011;2012;49.794;9.722;2023-04-06T09:44:08;10.30;;;7.77;;
3995;SDS011;2012;49.794;9.722;2023-04-06T09:46:43;8.87;;;6.90;;
3995;SDS011;2012;49.794;9.722;2023-04-06T09:49:27;10.63;;;6.87;;
3995;SDS011;2012;49.794;9.722;2023-04-06T09:51:58;11.73;;;6.67;;
3995;SDS011;2012;49.794;9.722;2023-04-06T09:54:28;17.10;;;8.90;;
3995;SDS011;2012;49.794;9.722;2023-04-06T09:57:02;11.80;;;8.33;;
3995;SDS011;2012;49.794;9.722;2023-04-06T10:02:05;13.97;;;9.47;;
3995;SDS011;2012;49.794;9.722;2023-04-06T10:04:43;14.40;;;8.20;;
3995;SDS011;2012;49.794;9.722;2023-04-06T10:07:16;12.97;;;8.00;;
3995;SDS011;2012;49.794;9.722;2023-04-06T10:09:44;11.43;;;8.20;;
3995;SDS011;2012;49.794;9.722;2023-04-06T10:12:14;17.13;;;8.37;;
3995;SDS011;2012;49.794;9.722;2023-04-06T10:14:42;13.97;;;8.70;;
3995;SDS011;2012;49.794;9.722;2023-04-06T10:17:10;13.13;;;8.00;;
3995;SDS011;2012;49.794;9.722;2023-04-06T10:19:49;10.90;;;7.33;;
3995;SDS011;2012;49.794;9.722;2023-04-06T10:22:32;11.40;;;7.90;;
3995;SDS011;2012;49.794;9.722;2023-04-06T10:25:08;19.00;;;8.23;;
3995;SDS011;2012;49.794;9.722;2023-04-06T10:27:35;16.43;;;8.00;;
3995;SDS011;2012;49.794;9.722;2023-04-06T10:30:03;15.73;;;8.57;;
3995;SDS011;2012;49.794;9.722;2023-04-06T10:32:35;9.53;;;7.40;;
3995;SDS011;2012;49.794;9.722;2023-04-06T10:35:10;9.60;;;7.70;;
3995;SDS011;2012;49.794;9.722;2023-04-06T10:37:46;14.67;;;9.00;;
3995;SDS011;2012;49.794;9.722;2023-04-06T10:40:26;8.87;;;6.80;;
3995;SDS011;2012;49.794;9.722;2023-04-06T10:42:54;12.97;;;9.23;;
3995;SDS011;2012;49.794;9.722;2023-04-06T10:45:23;11.60;;;7.53;;
3995;SDS011;2012;49.794;9.722;2023-04-06T10:47:54;13.67;;;7.67;;
3995;SDS011;2012;49.794;9.722;2023-04-06T10:50:22;12.80;;;8.53;;
3995;SDS011;2012;49.794;9.722;2023-04-06T10:52:59;12.53;;;8.80;;
3995;SDS011;2012;49.794;9.722;2023-04-06T10:55:28;19.03;;;8.60;;
3995;SDS011;2012;49.794;9.722;2023-04-06T10:57:55;9.43;;;7.27;;
3995;SDS011;2012;49.794;9.722;2023-04-06T11:00:22;14.50;;;8.97;;
3995;SDS011;2012;49.794;9.722;2023-04-06T11:02:58;18.40;;;7.73;;
3995;SDS011;2012;49.794;9.722;2023-04-06T11:05:27;16.07;;;8.30;;
3995;SDS011;2012;49.794;9.722;2023-04-06T11:07:54;11.90;;;8.00;;
3995;SDS011;2012;49.794;9.722;2023-04-06T11:10:22;10.73;;;6.43;;
3995;SDS011;2012;49.794;9.722;2023-04-06T11:12:55;14.77;;;7.17;;
3995;SDS011;2012;49.794;9.722;2023-04-06T11:15:23;14.33;;;7.43;;
3995;SDS011;2012;49.794;9.722;2023-04-06T11:17:50;12.00;;;8.20;;
3995;SDS011;2012;49.794;9.722;2023-04-06T11:20:17;10.67;;;7.83;;
3995;SDS011;2012;49.794;9.722;2023-04-06T11:22:49;12.57;;;8.53;;
3995;SDS011;2012;49.794;9.722;2023-04-06T11:25:17;11.00;;;7.37;;
3995;SDS011;2012;49.794;9.722;2023-04-06T11:27:45;14.13;;;8.47;;
3995;SDS011;2012;49.794;9.722;2023-04-06T11:30:13;10.60;;;8.37;;
3995;SDS011;2012;49.794;9.722;2023-04-06T11:32:41;13.97;;;9.07;;
3995;SDS011;2012;49.794;9.722;2023-04-06T11:35:27;11.30;;;8.40;;
3995;SDS011;2012;49.794;9.722;2023-04-06T11:37:59;13.60;;;8.47;;
3995;SDS011;2012;49.794;9.722;2023-04-06T11:40:29;11.53;;;8.73;;
3995;SDS011;2012;49.794;9.722;2023-04-06T11:42:56;11.50;;;8.50;;
3995;SDS011;2012;49.794;9.722;2023-04-06T11:45:23;10.77;;;7.80;;
3995;SDS011;2012;49.794;9.722;2023-04-06T11:47:57;10.43;;;8.07;;
3995;SDS011;2012;49.794;9.722;2023-04-06T11:50:31;11.63;;;9.17;;
3995;SDS011;2012;49.794;9.722;2023-04-06T11:53:01;13.17;;;7.97;;
3995;SDS011;2012;49.794;9.722;2023-04-06T11:55:29;13.13;;;8.10;;
3995;SDS011;2012;49.794;9.722;2023-04-06T11:58:03;10.63;;;6.90;;
3995;SDS011;2012;49.794;9.722;2023-04-06T12:00:29;12.50;;;8.50;;
3995;SDS011;2012;49.794;9.722;2023-04-06T12:03:00;13.00;;;8.13;;
3995;SDS011;2012;49.794;9.722;2023-04-06T12:05:27;14.63;;;7.50;;
3995;SDS011;2012;49.794;9.722;2023-04-06T12:07:54;11.10;;;8.03;;
3995;SDS011;2012;49.794;9.722;2023-04-06T12:10:23;11.00;;;8.50;;
3995;SDS011;2012;49.794;9.722;2023-04-06T12:12:50;14.43;;;7.83;;
3995;SDS011;2012;49.794;9.722;2023-04-06T12:15:16;11.50;;;6.97;;
3995;SDS011;2012;49.794;9.722;2023-04-06T12:17:43;10.33;;;7.23;;
3995;SDS011;2012;49.794;9.722;2023-04-06T12:20:10;15.70;;;8.77;;
3995;SDS011;2012;49.794;9.722;2023-04-06T12:22:50;12.47;;;9.73;;
3995;SDS011;2012;49.794;9.722;2023-04-06T12:25:17;25.50;;;9.57;;
3995;SDS011;2012;49.794;9.722;2023-04-06T12:27:44;13.97;;;8.40;;
3995;SDS011;2012;49.794;9.722;2023-04-06T12:30:11;10.57;;;7.33;;
3995;SDS011;2012;49.794;9.722;2023-04-06T12:32:38;7.23;;;5.80;;
3995;SDS011;2012;49.794;9.722;2023-04-06T12:35:06;14.77;;;7.57;;
3995;SDS011;2012;49.794;9.722;2023-04-06T12:37:35;21.27;;;9.20;;
3995;SDS011;2012;49.794;9.722;2023-04-06T12:40:03;10.30;;;7.57;;
3995;SDS011;2012;49.794;9.722;2023-04-06T12:42:31;15.53;;;8.77;;
3995;SDS011;2012;49.794;9.722;2023-04-06T12:44:58;11.10;;;6.77;;
3995;SDS011;2012;49.794;9.722;2023-04-06T12:47:25;9.03;;;6.50;;
3995;SDS011;2012;49.794;9.722;2023-04-06T12:49:52;7.23;;;6.00;;
3995;SDS011;2012;49.794;9.722;2023-04-06T12:52:20;10.27;;;6.50;;
3995;SDS011;2012;49.794;9.722;2023-04-06T12:54:47;10.43;;;6.40;;
3995;SDS011;2012;49.794;9.722;2023-04-06T12:57:16;11.00;;;6.50;;
3995;SDS011;2012;49.794;9.722;2023-04-06T12:59:43;14.83;;;7.17;;
3995;SDS011;2012;49.794;9.722;2023-04-06T13:02:11;10.10;;;7.10;;
3995;SDS011;2012;49.794;9.722;2023-04-06T13:04:38;8.10;;;6.40;;
3995;SDS011;2012;49.794;9.722;2023-04-06T13:07:05;11.17;;;8.23;;
3995;SDS011;2012;49.794;9.722;2023-04-06T13:09:32;9.87;;;6.77;;
3995;SDS011;2012;49.794;9.722;2023-04-06T13:11:59;7.80;;;5.80;;
3995;SDS011;2012;49.794;9.722;2023-04-06T13:14:25;11.50;;;7.40;;
3995;SDS011;2012;49.794;9.722;2023-04-06T13:16:52;13.13;;;7.40;;
3995;SDS011;2012;49.794;9.722;2023-04-06T13:19:19;10.43;;;7.20;;
3995;SDS011;2012;49.794;9.722;2023-04-06T13:21:46;7.57;;;6.67;;
3995;SDS011;2012;49.794;9.722;2023-04-06T13:24:13;15.70;;;7.43;;
3995;SDS011;2012;49.794;9.722;2023-04-06T13:26:43;8.80;;;7.10;;
3995;SDS011;2012;49.794;9.722;2023-04-06T13:29:10;11.00;;;6.90;;
3995;SDS011;2012;49.794;9.722;2023-04-06T13:31:37;8.37;;;6.10;;
3995;SDS011;2012;49.794;9.722;2023-04-06T13:34:05;10.97;;;6.97;;
3995;SDS011;2012;49.794;9.722;2023-04-06T13:36:31;11.07;;;6.73;;
3995;SDS011;2012;49.794;9.722;2023-04-06T13:38:58;10.87;;;7.80;;
3995;SDS011;2012;49.794;9.722;2023-04-06T13:41:26;10.00;;;7.23;;
3995;SDS011;2012;49.794;9.722;2023-04-06T13:43:53;11.67;;;6.90;;
3995;SDS011;2012;49.794;9.722;2023-04-06T13:46:19;11.50;;;7.40;;
3995;SDS011;2012;49.794;9.722;2023-04-06T13:48:46;12.07;;;6.97;;
3995;SDS011;2012;49.794;9.722;2023-04-06T13:51:14;9.50;;;7.57;;
3995;SDS011;2012;49.794;9.722;2023-04-06T13:53:41;10.00;;;7.07;;
3995;SDS011;2012;49.794;9.722;2023-04-06T13:56:08;9.47;;;7.07;;
3995;SDS011;2012;49.794;9.722;2023-04-06T13:58:35;9.00;;;6.13;;
3995;SDS011;2012;49.794;9.722;2023-04-06T14:01:05;8.07;;;6.20;;
3995;SDS011;2012;49.794;9.722;2023-04-06T14:03:34;8.20;;;7.20;;
3995;SDS011;2012;49.794;9.722;2023-04-06T14:06:09;13.80;;;6.20;;
3995;SDS011;2012;49.794;9.722;2023-04-06T14:08:46;9.67;;;7.93;;
3995;SDS011;2012;49.794;9.722;2023-04-06T14:11:13;10.80;;;6.30;;
3995;SDS011;2012;49.794;9.722;2023-04-06T14:13:41;7.93;;;6.13;;
3995;SDS011;2012;49.794;9.722;2023-04-06T14:16:08;9.63;;;6.77;;
3995;SDS011;2012;49.794;9.722;2023-04-06T14:18:36;8.90;;;6.60;;
3995;SDS011;2012;49.794;9.722;2023-04-06T14:21:03;14.83;;;6.67;;
3995;SDS011;2012;49.794;9.722;2023-04-06T14:23:30;10.83;;;6.83;;
3995;SDS011;2012;49.794;9.722;2023-04-06T14:26:04;8.60;;;6.40;;
3995;SDS011;2012;49.794;9.722;2023-04-06T14:28:33;8.80;;;6.27;;
3995;SDS011;2012;49.794;9.722;2023-04-06T14:31:02;9.50;;;7.50;;
3995;SDS011;2012;49.794;9.722;2023-04-06T14:33:37;10.67;;;6.70;;
3995;SDS011;2012;49.794;9.722;2023-04-06T14:36:04;16.63;;;6.67;;
3995;SDS011;2012;49.794;9.722;2023-04-06T14:38:31;10.57;;;7.20;;
3995;SDS011;2012;49.794;9.722;2023-04-06T14:40:59;10.33;;;6.30;;
3995;SDS011;2012;49.794;9.722;2023-04-06T14:43:26;11.63;;;7.37;;
3995;SDS011;2012;49.794;9.722;2023-04-06T14:45:53;8.97;;;7.00;;
3995;SDS011;2012;49.794;9.722;2023-04-06T14:48:19;10.27;;;7.50;;
3995;SDS011;2012;49.794;9.722;2023-04-06T14:50:52;9.80;;;6.47;;
3995;SDS011;2012;49.794;9.722;2023-04-06T14:53:23;7.80;;;6.30;;
3995;SDS011;2012;49.794;9.722;2023-04-06T14:55:50;13.73;;;7.27;;
3995;SDS011;2012;49.794;9.722;2023-04-06T14:58:20;10.50;;;5.77;;
3995;SDS011;2012;49.794;9.722;2023-04-06T15:00:48;10.40;;;7.30;;
3995;SDS011;2012;49.794;9.722;2023-04-06T15:03:15;7.73;;;6.83;;
3995;SDS011;2012;49.794;9.722;2023-04-06T15:05:43;7.70;;;5.97;;
3995;SDS011;2012;49.794;9.722;2023-04-06T15:08:10;10.00;;;6.70;;
3995;SDS011;2012;49.794;9.722;2023-04-06T15:10:38;9.97;;;6.63;;
3995;SDS011;2012;49.794;9.722;2023-04-06T15:13:04;7.20;;;4.83;;
3995;SDS011;2012;49.794;9.722;2023-04-06T15:15:31;9.47;;;6.80;;
3995;SDS011;2012;49.794;9.722;2023-04-06T15:17:58;10.53;;;5.80;;
3995;SDS011;2012;49.794;9.722;2023-04-06T15:20:28;19.77;;;6.13;;
3995;SDS011;2012;49.794;9.722;2023-04-06T15:22:56;6.57;;;5.00;;